createdAt,value
2022-10-27T00:00:48.803Z,4.53
2022-10-27T00:03:17.342Z,3.35
2022-10-27T00:05:45.761Z,4.90
2022-10-27T00:08:21.612Z,3.50
2022-10-27T00:10:59.140Z,4.25
2022-10-27T00:13:26.495Z,3.67
2022-10-27T00:16:05.180Z,3.03
2022-10-27T00:18:32.631Z,6.20
2022-10-27T00:21:12.102Z,5.85
2022-10-27T00:23:39.726Z,4.93
2022-10-27T00:26:08.419Z,3.63
2022-10-27T00:28:35.301Z,2.67
2022-10-27T00:31:08.003Z,3.97
2022-10-27T00:33:34.917Z,5.80
2022-10-27T00:36:05.768Z,4.93
2022-10-27T00:38:32.967Z,3.60
2022-10-27T00:41:00.269Z,3.63
2022-10-27T00:43:30.154Z,5.55
2022-10-27T00:46:04.202Z,2.58
2022-10-27T00:48:32.913Z,2.90
2022-10-27T00:51:03.080Z,4.43
2022-10-27T00:53:31.111Z,3.85
2022-10-27T00:55:58.351Z,2.90
2022-10-27T00:58:25.365Z,3.38
2022-10-27T01:00:52.388Z,3.15
2022-10-27T01:03:22.622Z,4.07
2022-10-27T01:05:52.433Z,3.08
2022-10-27T01:08:23.387Z,3.13
2022-10-27T01:10:51.730Z,8.40
2022-10-27T01:13:19.501Z,2.10
2022-10-27T01:15:49.488Z,6.65
2022-10-27T01:18:30.930Z,6.72
2022-10-27T01:21:22.502Z,3.67
2022-10-27T01:23:55.237Z,3.33
2022-10-27T01:26:46.084Z,3.03
2022-10-27T01:29:37.372Z,3.90
2022-10-27T01:32:20.778Z,5.00
2022-10-27T01:34:55.954Z,4.97
2022-10-27T01:37:27.201Z,5.82
2022-10-27T01:40:01.160Z,9.93
2022-10-27T01:42:52.173Z,4.78
2022-10-27T01:45:27.396Z,4.47
2022-10-27T01:47:56.749Z,6.50
2022-10-27T01:50:44.974Z,4.55
2022-10-27T01:53:19.790Z,4.78
2022-10-27T01:55:52.006Z,4.57
2022-10-27T01:58:47.220Z,8.30
2022-10-27T02:01:41.623Z,5.97
2022-10-27T02:04:28.808Z,4.72
2022-10-27T02:07:20.816Z,8.38
2022-10-27T02:10:15.223Z,6.38
2022-10-27T02:12:44.014Z,5.22
2022-10-27T02:15:39.462Z,7.22
2022-10-27T02:18:16.263Z,6.43
2022-10-27T02:20:48.272Z,4.80
2022-10-27T02:23:19.368Z,5.95
2022-10-27T02:25:51.756Z,5.82
2022-10-27T02:28:25.526Z,5.05
2022-10-27T02:30:54.490Z,7.03
2022-10-27T02:33:21.402Z,6.75
2022-10-27T02:35:48.818Z,5.80
2022-10-27T02:38:15.753Z,6.78
2022-10-27T02:40:42.833Z,5.78
2022-10-27T02:43:09.704Z,5.65
2022-10-27T02:45:36.603Z,4.70
2022-10-27T02:48:03.854Z,6.80
2022-10-27T02:50:30.823Z,7.57
2022-10-27T02:52:57.695Z,7.55
2022-10-27T02:55:24.590Z,10.18
2022-10-27T02:57:51.472Z,5.18
2022-10-27T03:00:18.510Z,6.65
2022-10-27T03:02:48.023Z,4.50
2022-10-27T03:05:15.315Z,5.85
2022-10-27T03:07:43.988Z,6.18
2022-10-27T03:10:11.008Z,6.20
2022-10-27T03:12:37.946Z,5.68
2022-10-27T03:15:06.159Z,5.97
2022-10-27T03:17:33.008Z,6.30
2022-10-27T03:22:31.849Z,5.60
2022-10-27T03:24:58.751Z,5.90
2022-10-27T03:27:25.618Z,5.88
2022-10-27T03:29:52.471Z,8.23
2022-10-27T03:32:19.394Z,6.95
2022-10-27T03:34:46.307Z,4.07
2022-10-27T03:37:13.187Z,8.05
2022-10-27T03:42:07.926Z,7.93
2022-10-27T03:44:34.798Z,8.70
2022-10-27T03:47:01.678Z,6.45
2022-10-27T03:51:55.921Z,4.75
2022-10-27T03:54:22.910Z,7.07
2022-10-27T03:56:49.787Z,6.43
2022-10-27T04:01:49.519Z,5.47
2022-10-27T04:04:16.901Z,4.35
2022-10-27T04:06:43.807Z,6.80
2022-10-27T04:09:10.785Z,5.82
2022-10-27T04:11:37.619Z,9.77
2022-10-27T04:14:04.580Z,7.05
2022-10-27T04:16:31.466Z,5.47
2022-10-27T04:18:58.404Z,5.07
2022-10-27T04:21:25.718Z,10.38
2022-10-27T04:23:52.590Z,6.97
2022-10-27T04:26:19.494Z,4.97
2022-10-27T04:28:46.401Z,7.13
2022-10-27T04:31:13.602Z,9.75
2022-10-27T04:33:41.537Z,5.55
2022-10-27T04:36:08.641Z,11.77
2022-10-27T04:38:37.307Z,7.50
2022-10-27T04:41:04.548Z,5.80
2022-10-27T04:43:31.465Z,9.90
2022-10-27T04:45:58.333Z,6.82
2022-10-27T04:48:25.204Z,11.02
2022-10-27T04:50:52.046Z,6.60
2022-10-27T04:53:18.935Z,7.07
2022-10-27T04:55:45.801Z,5.53
2022-10-27T04:58:12.735Z,6.55
2022-10-27T05:00:39.702Z,6.03
2022-10-27T05:03:06.720Z,7.53
2022-10-27T05:05:33.663Z,5.43
2022-10-27T05:08:02.354Z,6.30
2022-10-27T05:10:31.351Z,6.40
2022-10-27T05:12:58.870Z,22.90
2022-10-27T05:15:26.067Z,14.90
2022-10-27T05:17:53.535Z,5.03
2022-10-27T05:20:21.175Z,5.65
2022-10-27T05:22:48.214Z,15.25
2022-10-27T05:25:15.602Z,16.40
2022-10-27T05:27:42.486Z,7.22
2022-10-27T05:30:11.847Z,22.48
2022-10-27T05:32:41.962Z,8.85
2022-10-27T05:35:10.757Z,10.30
2022-10-27T05:37:37.593Z,7.78
2022-10-27T05:40:05.025Z,9.48
2022-10-27T05:42:31.894Z,4.95
2022-10-27T05:44:58.772Z,5.50
2022-10-27T05:47:25.909Z,5.38
2022-10-27T05:49:53.193Z,5.40
2022-10-27T05:52:20.093Z,3.15
2022-10-27T05:54:46.999Z,6.38
2022-10-27T05:57:13.886Z,5.57
2022-10-27T05:59:40.802Z,5.85
2022-10-27T06:02:09.667Z,9.52
2022-10-27T06:04:36.664Z,5.57
2022-10-27T06:07:03.546Z,4.70
2022-10-27T06:09:30.354Z,7.88
2022-10-27T06:11:57.237Z,5.10
2022-10-27T06:14:26.824Z,6.05
2022-10-27T06:16:56.506Z,7.53
2022-10-27T06:19:23.402Z,4.72
2022-10-27T06:21:50.362Z,6.00
2022-10-27T06:24:17.229Z,11.55
2022-10-27T06:26:44.090Z,7.45
2022-10-27T06:29:11.025Z,8.57
2022-10-27T06:31:39.660Z,7.03
2022-10-27T06:34:06.523Z,18.00
2022-10-27T06:36:33.435Z,17.70
2022-10-27T06:39:00.298Z,14.60
2022-10-27T06:41:27.193Z,4.72
2022-10-27T06:43:54.081Z,15.05
2022-10-27T06:46:20.984Z,3.65
2022-10-27T06:48:47.868Z,7.65
2022-10-27T06:51:14.873Z,9.13
2022-10-27T06:53:41.750Z,5.72
2022-10-27T06:56:08.631Z,9.63
2022-10-27T06:58:39.673Z,4.75
2022-10-27T07:01:07.173Z,4.32
2022-10-27T07:03:35.442Z,5.72
2022-10-27T07:06:02.454Z,5.57
2022-10-27T07:08:29.680Z,4.03
2022-10-27T07:10:57.207Z,3.88
2022-10-27T07:13:24.548Z,11.65
2022-10-27T07:15:51.508Z,9.77
2022-10-27T07:18:18.537Z,4.38
2022-10-27T07:20:46.705Z,7.90
2022-10-27T07:23:13.562Z,5.18
2022-10-27T07:25:40.597Z,8.45
2022-10-27T07:28:08.014Z,8.23
2022-10-27T07:30:40.451Z,4.90
2022-10-27T07:33:07.418Z,13.00
2022-10-27T07:35:34.511Z,11.82
2022-10-27T07:38:01.547Z,16.02
2022-10-27T07:40:30.424Z,9.15
2022-10-27T07:43:05.172Z,5.97
2022-10-27T07:45:39.351Z,7.43
2022-10-27T07:48:11.084Z,8.40
2022-10-27T07:50:38.131Z,9.50
2022-10-27T07:53:05.189Z,8.00
2022-10-27T07:55:35.989Z,10.88
2022-10-27T07:58:09.791Z,5.60
2022-10-27T08:00:39.766Z,7.30
2022-10-27T08:03:10.502Z,5.60
2022-10-27T08:05:38.149Z,9.95
2022-10-27T08:08:07.010Z,6.00
2022-10-27T08:10:36.810Z,7.45
2022-10-27T08:13:04.106Z,7.65
2022-10-27T08:15:31.810Z,5.93
2022-10-27T08:18:01.925Z,8.40
2022-10-27T08:20:32.342Z,6.18
2022-10-27T08:23:02.041Z,12.00
2022-10-27T08:25:30.066Z,7.10
2022-10-27T08:27:57.812Z,6.45
2022-10-27T08:30:27.171Z,4.43
2022-10-27T08:32:59.281Z,6.00
2022-10-27T08:35:27.967Z,5.15
2022-10-27T08:37:59.537Z,6.35
2022-10-27T08:43:40.097Z,8.63
2022-10-27T08:46:25.092Z,4.88
2022-10-27T08:48:55.388Z,6.20
2022-10-27T08:51:26.046Z,5.50
2022-10-27T08:53:55.832Z,5.45
2022-10-27T08:56:26.542Z,6.85
2022-10-27T08:58:53.543Z,6.85
2022-10-27T09:01:33.772Z,6.82
2022-10-27T09:04:25.458Z,4.25
2022-10-27T09:07:32.158Z,7.40
2022-10-27T09:10:04.326Z,5.07
2022-10-27T09:12:36.951Z,5.00
2022-10-27T09:15:12.333Z,8.25
2022-10-27T09:17:54.919Z,8.10
2022-10-27T09:20:32.366Z,6.13
2022-10-27T09:23:04.262Z,6.25
2022-10-27T09:25:37.350Z,4.88
2022-10-27T09:28:06.437Z,4.70
2022-10-27T09:30:37.285Z,6.78
2022-10-27T09:33:15.154Z,7.07
2022-10-27T09:35:42.283Z,7.75
2022-10-27T09:38:17.867Z,7.18
2022-10-27T09:40:44.934Z,10.48
2022-10-27T09:43:11.965Z,13.55
2022-10-27T10:16:45.646Z,11.00
2022-10-27T10:19:32.794Z,8.85
2022-10-27T10:22:00.973Z,16.92
2022-10-27T10:24:29.597Z,12.80
2022-10-27T10:26:58.418Z,13.30
2022-10-27T10:29:46.610Z,12.50
2022-10-27T10:32:16.456Z,15.73
2022-10-27T10:34:44.085Z,16.42
2022-10-27T10:37:32.328Z,9.70
2022-10-27T10:40:26.748Z,13.00
2022-10-27T10:43:16.487Z,10.15
2022-10-27T10:45:49.311Z,9.05
2022-10-27T10:48:42.140Z,13.02
2022-10-27T10:51:09.705Z,9.93
2022-10-27T10:53:42.483Z,14.52
2022-10-27T10:56:28.131Z,12.20
2022-10-27T10:59:21.095Z,14.75
2022-10-27T11:01:54.895Z,22.38
2022-10-27T11:04:30.897Z,13.68
2022-10-27T11:07:03.364Z,9.40
2022-10-27T11:09:59.317Z,9.43
2022-10-27T11:12:59.608Z,13.48
2022-10-27T11:15:33.784Z,14.75
2022-10-27T11:18:13.349Z,12.32
2022-10-27T11:20:43.257Z,8.52
2022-10-27T11:23:21.292Z,11.80
2022-10-27T11:25:49.398Z,14.57
2022-10-27T11:28:23.260Z,13.77
2022-10-27T11:31:03.466Z,14.15
2022-10-27T11:33:44.810Z,11.65
2022-10-27T11:36:23.646Z,10.50
2022-10-27T11:39:06.746Z,10.65
2022-10-27T11:41:44.667Z,9.25
2022-10-27T11:44:24.397Z,17.05
2022-10-27T11:46:58.262Z,19.88
2022-10-27T11:49:46.404Z,17.08
2022-10-27T11:52:30.362Z,8.68
2022-10-27T11:54:58.305Z,18.25
2022-10-27T11:57:46.262Z,10.10
2022-10-27T12:00:19.312Z,16.17
2022-10-27T12:02:58.529Z,14.05
2022-10-27T12:05:37.314Z,10.88
2022-10-27T12:08:25.511Z,10.88
2022-10-27T12:11:02.916Z,12.70
2022-10-27T12:13:41.294Z,11.98
2022-10-27T12:16:30.374Z,7.53
2022-10-27T12:19:14.259Z,9.25
2022-10-27T12:21:52.715Z,8.93
2022-10-27T12:24:28.221Z,4.97
2022-10-27T12:27:05.671Z,6.70
2022-10-27T12:29:38.900Z,7.07
2022-10-27T12:32:37.337Z,5.00
2022-10-27T12:35:18.379Z,7.35
2022-10-27T12:38:06.850Z,6.18
2022-10-27T12:40:52.005Z,4.13
2022-10-27T12:43:44.944Z,3.72
2022-10-27T12:46:36.737Z,5.88
2022-10-27T12:49:15.897Z,5.22
2022-10-27T12:52:21.701Z,3.33
2022-10-27T12:55:01.781Z,7.00
2022-10-27T12:57:45.218Z,3.72
2022-10-27T13:00:15.208Z,9.02
2022-10-27T13:03:16.668Z,6.95
2022-10-27T13:06:09.536Z,8.65
2022-10-27T13:08:52.532Z,6.07
2022-10-27T13:11:25.986Z,5.32
2022-10-27T13:14:11.247Z,5.97
2022-10-27T13:17:05.835Z,5.43
2022-10-27T13:20:02.424Z,4.78
2022-10-27T13:22:54.233Z,5.22
2022-10-27T13:25:39.282Z,5.68
2022-10-27T13:28:24.938Z,4.78
2022-10-27T13:30:57.322Z,8.00
2022-10-27T13:33:36.176Z,8.35
2022-10-27T13:36:20.664Z,7.40
2022-10-27T13:38:48.491Z,8.38
2022-10-27T13:41:47.272Z,5.22
2022-10-27T13:44:28.770Z,7.63
2022-10-27T13:47:04.532Z,3.83
2022-10-27T13:49:40.689Z,6.97
2022-10-27T13:52:18.639Z,9.90
2022-10-27T13:55:07.791Z,10.98
2022-10-27T13:57:46.669Z,7.32
2022-10-27T14:00:19.733Z,6.22
2022-10-27T14:03:12.342Z,14.05
2022-10-27T14:08:29.648Z,9.45
2022-10-27T14:11:12.414Z,6.43
2022-10-27T14:13:42.635Z,8.13
2022-10-27T14:16:19.785Z,8.77
2022-10-27T14:19:03.675Z,5.93
2022-10-27T14:21:35.487Z,8.52
2022-10-27T14:24:12.000Z,5.70
2022-10-27T14:29:07.779Z,10.32
2022-10-27T14:31:35.877Z,9.13
2022-10-27T14:34:24.958Z,8.65
2022-10-27T14:36:57.419Z,7.95
2022-10-27T14:39:31.634Z,5.90
2022-10-27T14:42:27.066Z,9.07
2022-10-27T14:45:00.525Z,5.30
2022-10-27T14:50:04.046Z,51.70
2022-10-27T14:52:42.423Z,44.28
2022-10-27T14:55:36.325Z,7.45
2022-10-27T14:58:04.671Z,7.47
2022-10-27T15:00:38.283Z,5.25
2022-10-27T15:03:07.562Z,9.70
2022-10-27T15:05:37.266Z,6.22
2022-10-27T15:08:09.468Z,9.77
2022-10-27T15:10:38.505Z,5.95
2022-10-27T15:13:08.068Z,8.20
2022-10-27T15:15:42.604Z,10.35
2022-10-27T15:18:22.915Z,8.50
2022-10-27T15:20:50.926Z,5.35
2022-10-27T15:23:19.323Z,6.13
2022-10-27T15:25:48.934Z,8.80
2022-10-27T15:28:17.259Z,11.82
2022-10-27T15:30:44.811Z,7.13
2022-10-27T15:33:41.527Z,6.80
2022-10-27T15:36:16.265Z,15.13
2022-10-27T15:38:44.855Z,8.10
2022-10-27T15:41:20.462Z,8.43
2022-10-27T15:44:25.898Z,8.05
2022-10-27T15:46:53.052Z,6.13
2022-10-27T15:49:23.009Z,7.28
2022-10-27T15:51:58.487Z,6.22
2022-10-27T15:54:40.644Z,4.63
2022-10-27T15:57:33.043Z,8.38
2022-10-27T16:00:13.135Z,5.43
2022-10-27T16:02:49.578Z,9.60
2022-10-27T16:05:31.920Z,8.25
2022-10-27T16:08:00.524Z,6.90
2022-10-27T16:10:28.251Z,6.60
2022-10-27T16:12:56.027Z,5.00
2022-10-27T16:15:25.216Z,11.20
2022-10-27T16:17:57.055Z,14.30
2022-10-27T16:20:29.577Z,10.23
2022-10-27T16:22:56.636Z,7.05
2022-10-27T16:25:33.591Z,7.53
2022-10-27T16:28:03.965Z,8.88
2022-10-27T16:30:30.884Z,5.55
2022-10-27T16:33:02.887Z,6.57
2022-10-27T16:35:31.487Z,5.32
2022-10-27T16:37:59.371Z,6.55
2022-10-27T16:40:26.273Z,9.15
2022-10-27T16:42:57.044Z,5.68
2022-10-27T16:45:24.802Z,11.88
2022-10-27T16:47:52.821Z,5.90
2022-10-27T16:50:20.656Z,6.40
2022-10-27T16:52:54.877Z,7.03
2022-10-27T16:55:22.518Z,6.97
2022-10-27T16:57:50.055Z,9.60
2022-10-27T17:00:17.577Z,7.90
2022-10-27T17:02:44.528Z,6.63
2022-10-27T17:05:11.460Z,6.45
2022-10-27T17:07:39.340Z,9.10
2022-10-27T17:10:06.964Z,8.32
2022-10-27T17:12:33.896Z,7.93
2022-10-27T17:15:01.030Z,6.68
2022-10-27T17:17:28.019Z,9.82
2022-10-27T17:19:54.937Z,9.13
2022-10-27T17:22:21.804Z,5.20
2022-10-27T17:24:48.654Z,8.13
2022-10-27T17:27:15.548Z,6.15
2022-10-27T17:29:42.743Z,7.70
2022-10-27T17:32:12.008Z,7.93
2022-10-27T17:34:38.953Z,7.78
2022-10-27T17:37:05.978Z,19.10
2022-10-27T17:39:32.932Z,6.50
2022-10-27T17:41:59.786Z,6.25
2022-10-27T17:44:26.608Z,12.40
2022-10-27T17:46:53.532Z,6.47
2022-10-27T17:49:20.548Z,7.47
2022-10-27T17:51:47.435Z,10.98
2022-10-27T17:54:17.046Z,6.25
2022-10-27T17:56:44.055Z,11.73
2022-10-27T17:59:15.225Z,7.55
2022-10-27T18:01:42.774Z,5.95
2022-10-27T18:04:11.880Z,7.60
2022-10-27T18:06:40.145Z,13.82
2022-10-27T18:09:07.030Z,7.00
2022-10-27T18:11:37.003Z,10.07
2022-10-27T18:14:08.329Z,10.75
2022-10-27T18:16:36.451Z,7.57
2022-10-27T18:19:04.737Z,6.85
2022-10-27T18:21:36.678Z,6.80
2022-10-27T18:24:06.980Z,6.78
2022-10-27T18:26:36.131Z,7.60
2022-10-27T18:29:03.480Z,9.98
2022-10-27T18:31:36.338Z,7.10
2022-10-27T18:34:04.802Z,9.02
2022-10-27T18:36:32.246Z,8.55
2022-10-27T18:39:01.142Z,8.73
2022-10-27T18:41:31.357Z,12.65
2022-10-27T18:43:58.619Z,18.17
2022-10-27T18:46:26.153Z,9.65
2022-10-27T18:49:01.134Z,11.23
2022-10-27T18:51:30.618Z,8.63
2022-10-27T18:53:59.596Z,11.55
2022-10-27T18:56:26.734Z,9.95
2022-10-27T18:58:59.117Z,7.95
2022-10-27T19:01:27.166Z,7.90
2022-10-27T19:03:59.762Z,9.90
2022-10-27T19:06:27.643Z,19.05
2022-10-27T19:08:55.193Z,9.75
2022-10-27T19:11:23.791Z,10.73
2022-10-27T19:13:50.845Z,9.18
2022-10-27T19:16:19.948Z,8.95
2022-10-27T19:18:47.718Z,10.10
2022-10-27T19:21:19.483Z,11.57
2022-10-27T19:23:48.424Z,8.20
2022-10-27T19:26:18.289Z,11.63
2022-10-27T19:28:46.746Z,10.68
2022-10-27T19:31:19.520Z,11.63
2022-10-27T19:33:47.473Z,13.95
2022-10-27T19:36:18.274Z,10.50
2022-10-27T19:38:45.497Z,17.48
2022-10-27T19:41:21.884Z,14.55
2022-10-27T19:43:51.376Z,17.85
2022-10-27T19:46:18.844Z,18.85
2022-10-27T19:48:51.352Z,13.20
2022-10-27T19:51:23.937Z,10.48
2022-10-27T19:53:51.713Z,12.60
2022-10-27T19:56:19.300Z,10.85
2022-10-27T19:58:54.432Z,9.98
2022-10-27T20:01:24.403Z,9.02
2022-10-27T20:03:52.268Z,11.73
2022-10-27T20:06:19.836Z,10.93
2022-10-27T20:08:52.278Z,9.93
2022-10-27T20:11:24.478Z,10.82
2022-10-27T20:13:52.990Z,8.18
2022-10-27T20:16:22.474Z,10.20
2022-10-27T20:18:49.390Z,18.30
2022-10-27T20:21:16.666Z,8.70
2022-10-27T20:23:44.458Z,12.82
2022-10-27T20:26:30.404Z,12.68
2022-10-27T20:29:00.195Z,9.27
2022-10-27T20:31:27.761Z,9.10
2022-10-27T20:33:55.315Z,13.98
2022-10-27T20:36:22.288Z,14.50
2022-10-27T20:38:49.235Z,9.18
2022-10-27T20:41:18.666Z,8.98
2022-10-27T20:43:46.383Z,12.27
2022-10-27T20:46:13.895Z,10.32
2022-10-27T20:48:43.678Z,8.60
2022-10-27T20:51:12.614Z,10.55
2022-10-27T20:53:40.696Z,10.93
2022-10-27T20:56:12.668Z,11.43
2022-10-27T20:58:39.524Z,12.20
2022-10-27T21:01:16.889Z,12.48
2022-10-27T21:03:44.305Z,11.05
2022-10-27T21:06:11.268Z,10.38
2022-10-27T21:08:38.208Z,10.50
2022-10-27T21:11:05.823Z,9.30
2022-10-27T21:13:32.769Z,8.02
2022-10-27T21:16:00.490Z,8.65
2022-10-27T21:18:27.687Z,10.52
2022-10-27T21:20:54.946Z,9.93
2022-10-27T21:23:22.018Z,8.27
2022-10-27T21:25:49.010Z,9.57
2022-10-27T21:28:15.865Z,13.63
2022-10-27T21:30:42.731Z,250.45
2022-10-27T21:33:09.690Z,16.63
2022-10-27T21:35:36.526Z,11.60
2022-10-27T21:38:03.677Z,10.20
2022-10-27T21:40:30.617Z,10.45
2022-10-27T21:42:57.664Z,15.30
2022-10-27T21:45:24.678Z,23.23
2022-10-27T21:47:51.765Z,176.50
2022-10-27T21:50:18.837Z,234.93
2022-10-27T21:52:45.753Z,205.07
2022-10-27T21:55:12.696Z,304.55
2022-10-27T21:57:39.943Z,281.25
2022-10-27T22:00:07.397Z,185.50
2022-10-27T22:02:34.322Z,110.93
2022-10-27T22:05:01.278Z,43.63
2022-10-27T22:07:28.150Z,56.08
2022-10-27T22:09:55.038Z,82.47
2022-10-27T22:12:21.971Z,120.03
2022-10-27T22:14:48.879Z,116.30
2022-10-27T22:17:15.802Z,93.70
2022-10-27T22:19:42.713Z,78.75
2022-10-27T22:22:09.646Z,60.38
2022-10-27T22:24:36.618Z,50.53
2022-10-27T22:27:03.703Z,17.25
2022-10-27T22:29:30.774Z,62.63
2022-10-27T22:31:57.644Z,38.50
2022-10-27T22:34:24.579Z,40.05
2022-10-27T22:36:51.497Z,33.22
2022-10-27T22:39:18.311Z,15.85
2022-10-27T22:41:45.440Z,12.73
2022-10-27T22:44:12.534Z,40.97
2022-10-27T22:46:39.477Z,15.23
2022-10-27T22:49:06.370Z,52.10
2022-10-27T22:51:33.225Z,28.33
2022-10-27T22:54:00.138Z,33.00
2022-10-27T22:56:29.947Z,36.40
2022-10-27T22:59:00.270Z,165.13
2022-10-27T23:01:30.466Z,24.55
2022-10-27T23:03:59.502Z,16.63
2022-10-27T23:06:29.467Z,25.17
2022-10-27T23:09:01.430Z,43.33
2022-10-27T23:11:36.063Z,24.95
2022-10-27T23:14:06.723Z,17.50
2022-10-27T23:16:34.454Z,16.33
2022-10-27T23:19:02.242Z,12.32
2022-10-27T23:21:30.244Z,15.13
2022-10-27T23:23:58.846Z,11.25
2022-10-27T23:26:34.137Z,12.40
2022-10-27T23:29:02.941Z,3.65
2022-10-27T23:31:30.817Z,11.35
2022-10-27T23:33:59.925Z,8.88
2022-10-27T23:36:28.774Z,7.45
2022-10-27T23:38:56.820Z,12.98
2022-10-27T23:41:24.325Z,10.60
2022-10-27T23:43:53.186Z,26.30
2022-10-27T23:46:21.777Z,15.45
2022-10-27T23:48:48.763Z,25.67
2022-10-27T23:51:16.374Z,33.83
2022-10-27T23:53:43.252Z,34.15
2022-10-27T23:56:11.409Z,44.25
2022-10-27T23:58:41.191Z,84.35
